createdAt,value
2023-05-08T00:00:45.308Z,261.05
2023-05-08T00:01:45.386Z,262.93
2023-05-08T00:02:45.348Z,262.51
2023-05-08T00:03:45.446Z,263.35
2023-05-08T00:04:46.224Z,262.72
2023-05-08T00:05:45.346Z,262.09
2023-05-08T00:06:45.216Z,261.26
2023-05-08T00:07:45.209Z,262.51
2023-05-08T00:08:45.208Z,261.05
2023-05-08T00:09:45.230Z,262.72
2023-05-08T00:10:46.093Z,262.09
2023-05-08T00:11:45.188Z,263.77
2023-05-08T00:12:45.164Z,263.77
2023-05-08T00:13:45.086Z,263.14
2023-05-08T00:14:45.131Z,262.93
2023-05-08T00:15:46.091Z,263.77
2023-05-08T00:16:45.101Z,263.56
2023-05-08T00:17:45.239Z,263.35
2023-05-08T00:18:46.257Z,263.56
2023-05-08T00:19:45.027Z,264.41
2023-05-08T00:20:46.016Z,262.93
2023-05-08T00:21:45.043Z,263.56
2023-05-08T00:22:45.007Z,263.98
2023-05-08T00:23:44.999Z,263.56
2023-05-08T00:24:44.953Z,262.72
2023-05-08T00:25:45.996Z,262.72
2023-05-08T00:26:45.055Z,263.56
2023-05-08T00:27:45.237Z,264.83
2023-05-08T00:28:44.943Z,264.41
2023-05-08T00:29:44.938Z,262.72
2023-05-08T00:30:44.949Z,264.83
2023-05-08T00:31:45.872Z,264.41
2023-05-08T00:32:44.925Z,264.41
2023-05-08T00:33:44.871Z,264.83
2023-05-08T00:34:44.957Z,264.19
2023-05-08T00:35:44.983Z,266.33
2023-05-08T00:36:45.824Z,264.19
2023-05-08T00:37:44.900Z,263.98
2023-05-08T00:38:44.821Z,264.19
2023-05-08T00:39:44.910Z,263.56
2023-05-08T00:40:44.804Z,263.98
2023-05-08T00:41:44.797Z,263.14
2023-05-08T00:42:45.736Z,266.33
2023-05-08T00:43:44.728Z,265.26
2023-05-08T00:44:44.738Z,265.04
2023-05-08T00:45:44.700Z,264.83
2023-05-08T00:46:44.778Z,265.69
2023-05-08T00:47:44.695Z,265.90
2023-05-08T00:48:45.688Z,266.33
2023-05-08T00:49:44.681Z,264.83
2023-05-08T00:50:44.663Z,264.19
2023-05-08T00:51:44.679Z,266.55
2023-05-08T00:52:44.590Z,265.69
2023-05-08T00:53:50.897Z,264.62
2023-05-08T00:54:44.676Z,266.98
2023-05-08T00:55:44.611Z,266.11
2023-05-08T00:56:44.962Z,265.69
2023-05-08T00:57:44.553Z,266.11
2023-05-08T00:58:45.477Z,266.33
2023-05-08T00:59:44.561Z,264.41
2023-05-08T01:00:44.543Z,265.90
2023-05-08T01:01:44.521Z,265.69
2023-05-08T01:02:44.760Z,264.83
2023-05-08T01:03:44.552Z,265.47
2023-05-08T01:04:45.431Z,268.28
2023-05-08T01:05:44.449Z,266.55
2023-05-08T01:06:44.488Z,265.69
2023-05-08T01:07:44.491Z,266.33
2023-05-08T01:08:44.389Z,266.98
2023-05-08T01:09:44.459Z,265.47
2023-05-08T01:10:45.356Z,265.69
2023-05-08T01:11:44.554Z,267.85
2023-05-08T01:12:44.445Z,266.11
2023-05-08T01:13:44.334Z,266.55
2023-05-08T01:14:44.417Z,266.98
2023-05-08T01:15:45.290Z,266.76
2023-05-08T01:16:44.335Z,266.98
2023-05-08T01:17:44.334Z,267.41
2023-05-08T01:18:44.509Z,268.94
2023-05-08T01:19:44.247Z,268.28
2023-05-08T01:20:44.428Z,269.16
2023-05-08T01:21:45.188Z,267.85
2023-05-08T01:22:44.258Z,266.98
2023-05-08T01:23:44.198Z,268.06
2023-05-08T01:24:44.185Z,268.72
2023-05-08T01:25:44.210Z,270.26
2023-05-08T01:26:44.216Z,268.72
2023-05-08T01:27:50.431Z,268.94
2023-05-08T01:28:44.186Z,268.72
2023-05-08T01:29:44.162Z,269.38
2023-05-08T01:30:44.189Z,270.04
2023-05-08T01:31:44.155Z,269.16
2023-05-08T01:32:44.164Z,269.60
2023-05-08T01:33:45.165Z,270.49
2023-05-08T01:34:44.085Z,270.26
2023-05-08T01:35:44.057Z,270.49
2023-05-08T01:36:44.096Z,270.04
2023-05-08T01:37:44.030Z,269.38
2023-05-08T01:38:44.061Z,270.04
2023-05-08T01:39:44.921Z,270.93
2023-05-08T01:40:44.011Z,270.04
2023-05-08T01:41:44.219Z,270.93
2023-05-08T01:42:43.944Z,271.15
2023-05-08T01:43:44.076Z,271.38
2023-05-08T01:44:43.985Z,270.26
2023-05-08T01:45:44.874Z,271.38
2023-05-08T01:46:43.969Z,271.60
2023-05-08T01:47:44.005Z,270.49
2023-05-08T01:48:43.879Z,270.93
2023-05-08T01:49:43.875Z,270.49
2023-05-08T01:50:44.812Z,270.49
2023-05-08T01:51:43.923Z,270.93
2023-05-08T01:52:43.871Z,270.49
2023-05-08T01:53:43.890Z,271.83
2023-05-08T01:54:43.808Z,270.49
2023-05-08T01:55:44.741Z,272.27
2023-05-08T01:56:43.860Z,271.38
2023-05-08T01:57:43.820Z,270.71
2023-05-08T01:58:43.813Z,271.38
2023-05-08T01:59:43.736Z,271.38
2023-05-08T02:00:44.744Z,271.38
2023-05-08T02:01:44.142Z,271.15
2023-05-08T02:02:43.880Z,270.49
2023-05-08T02:03:43.731Z,270.26
2023-05-08T02:04:43.789Z,270.26
2023-05-08T02:05:43.681Z,271.38
2023-05-08T02:06:44.704Z,273.63
2023-05-08T02:07:43.731Z,272.95
2023-05-08T02:08:43.699Z,272.95
2023-05-08T02:09:43.680Z,271.60
2023-05-08T02:10:43.608Z,270.71
2023-05-08T02:11:44.890Z,271.60
2023-05-08T02:12:43.676Z,271.38
2023-05-08T02:13:43.612Z,272.95
2023-05-08T02:14:43.587Z,273.63
2023-05-08T02:15:43.655Z,272.95
2023-05-08T02:16:44.554Z,272.27
2023-05-08T02:17:43.713Z,273.40
2023-05-08T02:18:43.547Z,273.63
2023-05-08T02:19:43.521Z,272.95
2023-05-08T02:20:43.656Z,272.73
2023-05-08T02:21:45.202Z,272.50
2023-05-08T02:22:43.467Z,273.63
2023-05-08T02:23:43.449Z,273.18
2023-05-08T02:24:43.527Z,274.09
2023-05-08T02:25:43.408Z,272.73
2023-05-08T02:26:43.471Z,274.09
2023-05-08T02:27:44.343Z,275.23
2023-05-08T02:28:43.371Z,273.63
2023-05-08T02:29:43.437Z,275.69
2023-05-08T02:30:43.345Z,273.63
2023-05-08T02:31:43.377Z,274.77
2023-05-08T02:32:44.322Z,273.40
2023-05-08T02:33:43.314Z,275.92
2023-05-08T02:34:54.784Z,274.09
2023-05-08T02:35:44.809Z,272.95
2023-05-08T02:36:43.287Z,273.40
2023-05-08T02:37:43.308Z,274.09
2023-05-08T02:38:44.229Z,275.92
2023-05-08T02:39:43.243Z,276.16
2023-05-08T02:40:43.277Z,273.86
2023-05-08T02:41:43.283Z,274.77
2023-05-08T02:42:43.236Z,275.46
2023-05-08T02:43:43.177Z,274.77
2023-05-08T02:44:44.100Z,274.55
2023-05-08T02:45:43.248Z,275.46
2023-05-08T02:46:43.199Z,275.46
2023-05-08T02:47:43.235Z,274.77
2023-05-08T02:48:43.150Z,274.55
2023-05-08T02:49:43.147Z,274.77
2023-05-08T02:50:44.017Z,274.77
2023-05-08T02:51:43.124Z,273.40
2023-05-08T02:52:43.079Z,274.32
2023-05-08T02:53:43.096Z,273.18
2023-05-08T02:54:43.044Z,275.69
2023-05-08T02:55:44.041Z,275.92
2023-05-08T02:56:43.004Z,273.63
2023-05-08T02:57:43.020Z,274.55
2023-05-08T02:58:43.033Z,275.00
2023-05-08T02:59:43.021Z,274.55
2023-05-08T03:00:43.003Z,275.46
2023-05-08T03:01:44.104Z,275.46
2023-05-08T03:02:43.099Z,276.16
2023-05-08T03:03:43.085Z,275.92
2023-05-08T03:04:42.931Z,275.46
2023-05-08T03:05:42.920Z,275.23
2023-05-08T03:06:43.861Z,276.16
2023-05-08T03:07:42.902Z,275.92
2023-05-08T03:08:42.880Z,275.92
2023-05-08T03:09:42.875Z,275.00
2023-05-08T03:10:42.852Z,275.69
2023-05-08T03:11:42.855Z,275.46
2023-05-08T03:12:43.788Z,275.00
2023-05-08T03:13:42.982Z,276.39
2023-05-08T03:14:42.834Z,275.92
2023-05-08T03:15:42.826Z,276.16
2023-05-08T03:16:42.796Z,275.92
2023-05-08T03:17:42.799Z,275.46
2023-05-08T03:18:43.669Z,276.85
2023-05-08T03:19:42.748Z,276.39
2023-05-08T03:20:42.717Z,274.77
2023-05-08T03:21:42.722Z,276.39
2023-05-08T03:22:42.733Z,276.85
2023-05-08T03:23:42.743Z,278.26
2023-05-08T03:24:43.670Z,275.23
2023-05-08T03:25:42.653Z,277.79
2023-05-08T03:26:42.666Z,276.62
2023-05-08T03:27:42.788Z,275.00
2023-05-08T03:28:42.668Z,274.55
2023-05-08T03:29:42.644Z,275.23
2023-05-08T03:30:43.521Z,276.85
2023-05-08T03:31:42.727Z,275.46
2023-05-08T03:32:42.624Z,277.32
2023-05-08T03:33:42.554Z,277.32
2023-05-08T03:34:42.615Z,275.69
2023-05-08T03:35:42.535Z,276.62
2023-05-08T03:36:43.441Z,275.69
2023-05-08T03:37:42.558Z,278.02
2023-05-08T03:38:42.535Z,276.62
2023-05-08T03:39:42.499Z,277.32
2023-05-08T03:40:42.491Z,278.49
2023-05-08T03:41:43.446Z,276.85
2023-05-08T03:42:42.434Z,277.32
2023-05-08T03:43:42.410Z,278.26
2023-05-08T03:44:42.460Z,277.32
2023-05-08T03:45:42.422Z,276.85
2023-05-08T03:46:42.497Z,278.73
2023-05-08T03:47:44.430Z,277.32
2023-05-08T03:48:42.353Z,279.20
2023-05-08T03:49:42.355Z,277.09
2023-05-08T03:50:42.416Z,276.62
2023-05-08T03:51:42.333Z,278.73
2023-05-08T03:52:42.336Z,276.62
2023-05-08T03:53:43.245Z,276.62
2023-05-08T03:54:42.336Z,277.09
2023-05-08T03:55:43.203Z,279.20
2023-05-08T03:56:42.268Z,278.73
2023-05-08T03:57:42.291Z,278.26
2023-05-08T03:58:42.253Z,276.39
2023-05-08T03:59:43.188Z,278.26
2023-05-08T04:00:42.226Z,276.85
2023-05-08T04:01:42.256Z,276.85
2023-05-08T04:02:42.554Z,279.20
2023-05-08T04:03:42.267Z,276.62
2023-05-08T04:04:42.238Z,278.26
2023-05-08T04:05:43.132Z,278.73
2023-05-08T04:06:49.428Z,278.73
2023-05-08T04:07:43.663Z,276.16
2023-05-08T04:08:42.127Z,276.62
2023-05-08T04:09:42.304Z,278.49
2023-05-08T04:10:42.089Z,278.26
2023-05-08T04:11:43.044Z,276.39
2023-05-08T04:12:42.113Z,278.02
2023-05-08T04:13:42.087Z,277.79
2023-05-08T04:14:42.052Z,276.62
2023-05-08T04:15:42.062Z,278.49
2023-05-08T04:16:42.993Z,278.26
2023-05-08T04:17:42.047Z,277.09
2023-05-08T04:18:42.003Z,276.85
2023-05-08T04:19:42.208Z,277.79
2023-05-08T04:20:42.469Z,277.09
2023-05-08T04:21:42.043Z,277.79
2023-05-08T04:22:43.048Z,277.79
2023-05-08T04:23:41.986Z,278.73
2023-05-08T04:24:42.027Z,278.96
2023-05-08T04:25:41.907Z,279.44
2023-05-08T04:26:41.944Z,279.91
2023-05-08T04:27:42.805Z,281.83
2023-05-08T04:28:41.875Z,280.63
2023-05-08T04:29:41.871Z,280.15
2023-05-08T04:30:41.909Z,280.39
2023-05-08T04:31:41.887Z,279.91
2023-05-08T04:32:44.158Z,280.87
2023-05-08T04:33:42.812Z,280.87
2023-05-08T04:34:41.904Z,281.35
2023-05-08T04:35:41.877Z,280.63
2023-05-08T04:36:41.793Z,281.11
2023-05-08T04:37:41.795Z,280.87
2023-05-08T04:38:41.877Z,281.11
2023-05-08T04:39:43.733Z,282.31
2023-05-08T04:40:41.743Z,281.11
2023-05-08T04:41:41.835Z,281.59
2023-05-08T04:42:42.616Z,282.07
2023-05-08T04:43:41.696Z,281.59
2023-05-08T04:44:41.712Z,280.87
2023-05-08T04:45:42.595Z,282.80
2023-05-08T04:46:41.664Z,282.55
2023-05-08T04:47:41.655Z,280.87
2023-05-08T04:48:41.654Z,280.87
2023-05-08T04:49:41.636Z,282.07
2023-05-08T04:50:41.612Z,281.11
2023-05-08T04:51:42.571Z,280.63
2023-05-08T04:52:41.553Z,282.55
2023-05-08T04:53:41.628Z,279.67
2023-05-08T04:54:41.598Z,279.44
2023-05-08T04:55:41.545Z,281.59
2023-05-08T04:56:42.474Z,280.63
2023-05-08T04:57:41.521Z,280.63
2023-05-08T04:58:41.529Z,282.07
2023-05-08T04:59:41.505Z,279.67
2023-05-08T05:00:41.471Z,280.87
2023-05-08T05:01:41.598Z,280.63
2023-05-08T05:02:42.431Z,279.20
2023-05-08T05:03:41.534Z,278.73
2023-05-08T05:04:41.423Z,278.73
2023-05-08T05:05:41.404Z,280.15
2023-05-08T05:06:41.427Z,280.15
2023-05-08T05:07:42.375Z,280.39
2023-05-08T05:08:42.232Z,280.15
2023-05-08T05:09:41.350Z,278.26
2023-05-08T05:10:41.376Z,279.20
2023-05-08T05:11:41.350Z,280.15
2023-05-08T05:12:42.238Z,279.20
2023-05-08T05:13:41.330Z,279.20
2023-05-08T05:14:41.873Z,278.96
2023-05-08T05:15:41.360Z,279.67
2023-05-08T05:16:41.365Z,277.79
2023-05-08T05:17:42.271Z,278.96
2023-05-08T05:18:41.254Z,278.73
2023-05-08T05:19:41.271Z,280.63
2023-05-08T05:20:41.242Z,279.91
2023-05-08T05:21:41.278Z,279.67
2023-05-08T05:22:42.098Z,277.32
2023-05-08T05:23:41.231Z,278.49
2023-05-08T05:24:41.249Z,278.73
2023-05-08T05:25:41.143Z,278.02
2023-05-08T05:26:41.203Z,277.09
2023-05-08T05:27:42.092Z,280.15
2023-05-08T05:28:41.168Z,278.26
2023-05-08T05:29:41.788Z,277.79
2023-05-08T05:30:41.093Z,279.20
2023-05-08T05:31:41.420Z,276.85
2023-05-08T05:32:41.160Z,277.32
2023-05-08T05:33:42.074Z,278.26
2023-05-08T05:34:41.041Z,277.55
2023-05-08T05:35:41.070Z,278.73
2023-05-08T05:36:41.006Z,275.23
2023-05-08T05:37:41.084Z,278.02
2023-05-08T05:38:40.992Z,276.85
2023-05-08T05:39:41.932Z,277.79
2023-05-08T05:40:40.945Z,277.55
2023-05-08T05:41:41.948Z,277.55
2023-05-08T05:42:40.953Z,277.79
2023-05-08T05:43:40.910Z,275.46
2023-05-08T05:44:40.941Z,277.32
2023-05-08T05:45:41.813Z,275.69
2023-05-08T05:46:43.565Z,276.16
2023-05-08T05:47:40.910Z,276.16
2023-05-08T05:48:40.843Z,276.16
2023-05-08T05:49:40.887Z,276.85
2023-05-08T05:50:42.616Z,275.46
2023-05-08T05:51:41.835Z,275.92
2023-05-08T05:52:40.929Z,275.69
2023-05-08T05:53:40.820Z,275.69
2023-05-08T05:54:40.755Z,274.55
2023-05-08T05:55:40.833Z,275.69
2023-05-08T05:56:40.840Z,274.32
2023-05-08T05:57:41.773Z,276.39
2023-05-08T05:58:40.745Z,276.39
2023-05-08T05:59:40.776Z,275.00
2023-05-08T06:00:40.702Z,276.39
2023-05-08T06:01:41.138Z,274.09
2023-05-08T06:02:41.804Z,277.09
2023-05-08T06:03:40.728Z,274.32
2023-05-08T06:04:40.694Z,275.23
2023-05-08T06:05:40.752Z,274.09
2023-05-08T06:06:40.674Z,275.69
2023-05-08T06:07:41.690Z,273.18
2023-05-08T06:08:40.671Z,274.09
2023-05-08T06:09:40.741Z,274.77
2023-05-08T06:10:40.591Z,275.00
2023-05-08T06:11:40.952Z,275.00
2023-05-08T06:12:41.539Z,274.32
2023-05-08T06:13:40.655Z,273.18
2023-05-08T06:14:40.599Z,273.40
2023-05-08T06:15:40.539Z,273.63
2023-05-08T06:16:40.576Z,275.23
2023-05-08T06:17:41.492Z,273.18
2023-05-08T06:18:40.599Z,274.77
2023-05-08T06:19:40.502Z,272.73
2023-05-08T06:20:40.537Z,274.09
2023-05-08T06:21:40.979Z,273.40
2023-05-08T06:22:40.456Z,274.09
2023-05-08T06:23:41.374Z,272.95
2023-05-08T06:24:40.551Z,272.05
2023-05-08T06:25:40.457Z,272.73
2023-05-08T06:26:40.471Z,272.05
2023-05-08T06:27:40.388Z,272.27
2023-05-08T06:28:41.340Z,271.83
2023-05-08T06:29:40.390Z,271.60
2023-05-08T06:30:40.389Z,272.27
2023-05-08T06:31:40.304Z,270.93
2023-05-08T06:32:40.423Z,272.27
2023-05-08T06:33:41.289Z,270.26
2023-05-08T06:34:40.280Z,269.60
2023-05-08T06:35:40.290Z,269.60
2023-05-08T06:36:40.304Z,270.04
2023-05-08T06:37:40.221Z,271.15
2023-05-08T06:38:40.897Z,270.04
2023-05-08T06:39:41.175Z,269.38
2023-05-08T06:40:40.225Z,270.04
2023-05-08T06:41:40.179Z,267.41
2023-05-08T06:42:40.287Z,268.50
2023-05-08T06:43:40.165Z,266.55
2023-05-08T06:44:40.167Z,266.33
2023-05-08T06:45:41.078Z,268.72
2023-05-08T06:46:40.180Z,266.98
2023-05-08T06:47:40.166Z,265.69
2023-05-08T06:48:40.220Z,265.47
2023-05-08T06:49:40.181Z,265.47
2023-05-08T06:50:41.022Z,265.47
2023-05-08T06:51:40.111Z,265.04
2023-05-08T06:52:40.100Z,264.83
2023-05-08T06:53:40.050Z,263.56
2023-05-08T06:54:40.053Z,263.98
2023-05-08T06:55:41.017Z,264.83
2023-05-08T06:56:40.055Z,263.14
2023-05-08T06:57:40.009Z,263.56
2023-05-08T06:58:40.007Z,262.30
2023-05-08T06:59:39.977Z,262.30
2023-05-08T07:00:39.980Z,261.88
2023-05-08T07:01:46.270Z,260.23
2023-05-08T07:02:40.126Z,261.67
2023-05-08T07:03:39.986Z,260.43
2023-05-08T07:04:40.090Z,259.61
2023-05-08T07:05:39.904Z,258.39
2023-05-08T07:06:40.889Z,257.78
2023-05-08T07:07:39.910Z,257.38
2023-05-08T07:08:39.901Z,256.98
2023-05-08T07:09:39.946Z,257.18
2023-05-08T07:10:39.849Z,257.38
2023-05-08T07:11:40.785Z,256.38
2023-05-08T07:12:39.953Z,255.19
2023-05-08T07:13:39.861Z,254.40
2023-05-08T07:14:39.780Z,254.79
2023-05-08T07:15:39.789Z,254.99
2023-05-08T07:16:39.859Z,254.01
2023-05-08T07:17:40.840Z,254.40
2023-05-08T07:18:39.747Z,252.64
2023-05-08T07:19:39.984Z,253.62
2023-05-08T07:20:39.717Z,252.26
2023-05-08T07:21:39.673Z,251.10
2023-05-08T07:22:40.627Z,251.10
2023-05-08T07:23:39.635Z,251.87
2023-05-08T07:24:39.690Z,250.91
2023-05-08T07:25:39.676Z,250.15
2023-05-08T07:26:39.670Z,250.15
2023-05-08T07:27:40.580Z,249.39
2023-05-08T07:28:39.645Z,249.77
2023-05-08T07:29:39.627Z,248.07
2023-05-08T07:30:39.631Z,247.70
2023-05-08T07:31:39.749Z,245.85
2023-05-08T07:32:39.795Z,246.04
2023-05-08T07:33:40.507Z,246.59
2023-05-08T07:34:39.507Z,245.12
2023-05-08T07:35:39.581Z,246.77
2023-05-08T07:36:39.663Z,245.49
2023-05-08T07:37:39.516Z,244.57
2023-05-08T07:38:39.471Z,244.39
2023-05-08T07:39:40.459Z,243.67
2023-05-08T07:40:39.479Z,242.95
2023-05-08T07:41:39.524Z,242.24
2023-05-08T07:42:39.455Z,241.88
2023-05-08T07:43:39.472Z,240.64
2023-05-08T07:44:51.009Z,240.47
2023-05-08T07:45:41.899Z,240.64
2023-05-08T07:46:39.475Z,239.24
2023-05-08T07:47:39.423Z,238.72
2023-05-08T07:48:39.388Z,238.90
2023-05-08T07:49:39.593Z,237.86
2023-05-08T07:50:40.330Z,237.18
2023-05-08T07:51:39.440Z,237.52
2023-05-08T07:52:39.374Z,238.03
2023-05-08T07:53:39.574Z,236.84
2023-05-08T07:54:39.291Z,235.65
2023-05-08T07:55:40.269Z,236.50
2023-05-08T07:56:39.337Z,235.65
2023-05-08T07:57:39.245Z,235.99
2023-05-08T07:58:39.387Z,234.64
2023-05-08T07:59:39.219Z,232.65
2023-05-08T08:00:40.135Z,235.65
2023-05-08T08:01:39.238Z,231.51
2023-05-08T08:02:39.306Z,232.82
2023-05-08T08:03:39.223Z,230.70
2023-05-08T08:04:39.230Z,230.54
2023-05-08T08:05:40.074Z,231.02
2023-05-08T08:06:39.126Z,230.21
2023-05-08T08:07:39.129Z,229.25
2023-05-08T08:08:39.056Z,228.77
2023-05-08T08:09:39.157Z,230.54
2023-05-08T08:10:39.164Z,230.70
2023-05-08T08:11:39.986Z,230.70
2023-05-08T08:12:39.211Z,230.86
2023-05-08T08:13:39.003Z,229.57
2023-05-08T08:14:39.072Z,228.46
2023-05-08T08:15:39.012Z,227.35
2023-05-08T08:16:38.997Z,227.04
2023-05-08T08:17:39.974Z,226.10
2023-05-08T08:18:38.973Z,226.41
2023-05-08T08:19:38.939Z,225.64
2023-05-08T08:20:39.077Z,225.49
2023-05-08T08:21:38.914Z,223.95
2023-05-08T08:22:39.807Z,223.04
2023-05-08T08:23:38.917Z,223.50
2023-05-08T08:24:38.881Z,224.26
2023-05-08T08:25:38.879Z,222.89
2023-05-08T08:26:38.914Z,221.54
2023-05-08T08:27:39.741Z,222.29
2023-05-08T08:29:36.296Z,345.73
2023-05-08T08:30:36.291Z,296.81
2023-05-08T08:31:36.389Z,272.05
2023-05-08T08:32:36.297Z,259.41
2023-05-08T08:33:36.283Z,249.96
2023-05-08T08:34:36.220Z,242.59
2023-05-08T08:35:36.275Z,236.84
2023-05-08T08:36:36.249Z,232.32
2023-05-08T08:37:36.199Z,230.05
2023-05-08T08:38:37.161Z,225.64
2023-05-08T08:39:36.164Z,223.80
2023-05-08T08:40:36.170Z,222.59
2023-05-08T08:41:36.181Z,220.21
2023-05-08T08:42:36.165Z,218.02
2023-05-08T08:43:37.748Z,217.73
2023-05-08T08:44:37.176Z,216.16
2023-05-08T08:45:36.093Z,214.47
2023-05-08T08:46:36.181Z,213.91
2023-05-08T08:47:36.167Z,211.85
2023-05-08T08:48:37.077Z,210.90
2023-05-08T08:49:36.036Z,210.63
2023-05-08T08:50:36.047Z,209.56
2023-05-08T08:51:36.013Z,207.71
2023-05-08T08:52:36.057Z,207.84
2023-05-08T08:53:36.906Z,206.41
2023-05-08T08:54:36.018Z,205.38
2023-05-08T08:55:36.002Z,204.87
2023-05-08T08:56:35.941Z,203.98
2023-05-08T08:57:35.965Z,203.35
2023-05-08T08:58:37.381Z,202.35
2023-05-08T08:59:36.875Z,201.24
2023-05-08T09:00:36.089Z,202.47
2023-05-08T09:01:35.928Z,200.62
2023-05-08T09:02:36.102Z,200.38
2023-05-08T09:03:36.063Z,198.33
2023-05-08T09:04:35.880Z,199.41
2023-05-08T09:05:36.789Z,197.73
2023-05-08T09:06:35.852Z,197.26
2023-05-08T09:07:35.852Z,196.90
2023-05-08T09:08:35.785Z,195.74
2023-05-08T09:09:35.888Z,195.15
2023-05-08T09:10:36.753Z,194.23
2023-05-08T09:11:35.777Z,193.55
2023-05-08T09:12:35.786Z,192.87
2023-05-08T09:13:35.974Z,192.19
2023-05-08T09:14:35.746Z,190.86
2023-05-08T09:15:35.708Z,189.98
2023-05-08T09:16:37.595Z,190.20
2023-05-08T09:17:35.827Z,189.65
2023-05-08T09:18:35.678Z,187.81
2023-05-08T09:19:35.657Z,187.06
2023-05-08T09:20:35.663Z,187.81
2023-05-08T09:21:35.614Z,186.64
2023-05-08T09:22:36.545Z,186.43
2023-05-08T09:23:35.670Z,185.38
2023-05-08T09:24:35.576Z,186.11
2023-05-08T09:25:35.586Z,186.73
2023-05-08T09:26:35.585Z,186.73
2023-05-08T09:27:36.501Z,186.11
2023-05-08T09:28:35.545Z,185.49
2023-05-08T09:29:35.595Z,184.47
2023-05-08T09:30:35.528Z,183.86
2023-05-08T09:31:35.541Z,185.08
2023-05-08T09:32:35.759Z,184.27
2023-05-08T09:33:36.412Z,184.67
2023-05-08T09:34:35.485Z,181.67
2023-05-08T09:35:35.703Z,183.26
2023-05-08T09:36:35.434Z,181.87
2023-05-08T09:37:35.441Z,181.87
2023-05-08T09:38:36.457Z,182.26
2023-05-08T09:39:35.419Z,181.28
2023-05-08T09:40:35.417Z,180.88
2023-05-08T09:41:35.435Z,179.91
2023-05-08T09:42:35.393Z,179.72
2023-05-08T09:43:36.333Z,179.91
2023-05-08T09:44:35.345Z,179.53
2023-05-08T09:45:35.575Z,178.00
2023-05-08T09:46:35.382Z,176.87
2023-05-08T09:47:35.390Z,177.44
2023-05-08T09:48:35.268Z,176.87
2023-05-08T09:49:36.257Z,175.39
2023-05-08T09:50:35.339Z,175.39
2023-05-08T09:51:35.244Z,175.39
2023-05-08T09:52:35.297Z,173.93
2023-05-08T09:53:35.247Z,174.66
2023-05-08T09:54:36.159Z,174.12
2023-05-08T09:55:35.349Z,174.12
2023-05-08T09:56:35.155Z,173.22
2023-05-08T09:57:35.159Z,171.62
2023-05-08T09:58:35.189Z,170.92
2023-05-08T09:59:36.101Z,171.44
2023-05-08T10:00:35.200Z,171.44
2023-05-08T10:01:35.354Z,169.88
2023-05-08T10:02:35.134Z,169.53
2023-05-08T10:03:35.126Z,170.05
2023-05-08T10:04:36.055Z,169.71
2023-05-08T10:05:35.171Z,168.68
2023-05-08T10:06:35.032Z,168.17
2023-05-08T10:07:35.063Z,167.84
2023-05-08T10:08:34.994Z,166.50
2023-05-08T10:09:47.461Z,167.16
2023-05-08T10:10:36.574Z,165.84
2023-05-08T10:11:35.023Z,165.02
2023-05-08T10:12:35.146Z,165.19
2023-05-08T10:13:35.001Z,165.02
2023-05-08T10:14:34.979Z,163.89
2023-05-08T10:15:35.876Z,163.26
2023-05-08T10:16:34.973Z,163.26
2023-05-08T10:17:34.940Z,163.10
2023-05-08T10:18:34.923Z,162.46
2023-05-08T10:19:34.878Z,162.31
2023-05-08T10:20:34.907Z,160.90
2023-05-08T10:21:35.790Z,160.59
2023-05-08T10:22:34.868Z,159.98
2023-05-08T10:23:34.813Z,158.77
2023-05-08T10:24:34.884Z,158.17
2023-05-08T10:25:34.795Z,158.62
2023-05-08T10:26:34.784Z,157.87
2023-05-08T10:27:35.710Z,156.10
2023-05-08T10:28:34.781Z,156.25
2023-05-08T10:29:34.767Z,153.81
2023-05-08T10:30:34.765Z,153.25
2023-05-08T10:31:34.802Z,151.86
2023-05-08T10:32:35.738Z,149.82
2023-05-08T10:33:34.768Z,149.15
2023-05-08T10:34:34.690Z,147.06
2023-05-08T10:35:34.707Z,144.77
2023-05-08T10:36:34.652Z,143.90
2023-05-08T10:37:34.647Z,140.76
2023-05-08T10:38:41.307Z,139.93
2023-05-08T10:39:34.648Z,139.24
2023-05-08T10:40:34.649Z,135.08
2023-05-08T10:41:34.602Z,133.36
2023-05-08T10:42:34.642Z,128.95
2023-05-08T10:43:34.876Z,125.19
2023-05-08T10:44:35.517Z,120.42
2023-05-08T10:45:34.572Z,116.08
2023-05-08T10:46:34.642Z,110.49
2023-05-08T10:47:34.638Z,105.01
2023-05-08T10:48:34.576Z,100.00
2023-05-08T10:49:35.439Z,95.68
2023-05-08T10:50:34.540Z,91.60
2023-05-08T10:51:34.520Z,87.85
2023-05-08T10:52:34.504Z,83.39
2023-05-08T10:53:34.511Z,79.44
2023-05-08T10:54:35.475Z,75.70
2023-05-08T10:55:34.467Z,72.24
2023-05-08T10:56:34.435Z,69.37
2023-05-08T10:57:34.528Z,66.56
2023-05-08T10:58:34.472Z,63.63
2023-05-08T10:59:34.419Z,61.21
2023-05-08T11:00:35.317Z,58.47
2023-05-08T11:01:34.559Z,56.12
2023-05-08T11:02:34.510Z,53.92
2023-05-08T11:03:34.449Z,51.59
2023-05-08T11:04:34.382Z,49.64
2023-05-08T11:05:34.385Z,48.01
2023-05-08T11:06:35.283Z,46.52
2023-05-08T11:07:34.338Z,45.12
2023-05-08T11:08:34.368Z,43.53
2023-05-08T11:09:34.288Z,42.08
2023-05-08T11:10:34.992Z,40.81
2023-05-08T11:11:35.279Z,39.77
2023-05-08T11:12:34.266Z,38.21
2023-05-08T11:13:34.320Z,37.00
2023-05-08T11:14:34.266Z,35.89
2023-05-08T11:15:34.310Z,34.93
2023-05-08T11:16:35.234Z,34.05
2023-05-08T11:17:34.317Z,33.21
2023-05-08T11:18:48.432Z,32.44
2023-05-08T11:19:35.752Z,31.66
2023-05-08T11:20:34.317Z,30.96
2023-05-08T11:21:34.152Z,30.13
2023-05-08T11:22:35.130Z,29.48
2023-05-08T11:23:34.180Z,28.71
2023-05-08T11:24:34.251Z,28.08
2023-05-08T11:25:34.143Z,27.31
2023-05-08T11:26:34.152Z,26.61
2023-05-08T11:27:34.132Z,25.87
2023-05-08T11:28:35.030Z,25.24
2023-05-08T11:29:34.152Z,24.56
2023-05-08T11:30:34.118Z,23.90
2023-05-08T11:31:34.074Z,23.34
2023-05-08T11:32:34.103Z,22.83
2023-05-08T11:33:34.021Z,22.34
2023-05-08T11:34:35.038Z,21.74
2023-05-08T11:35:34.058Z,21.39
2023-05-08T11:36:34.002Z,20.94
2023-05-08T11:37:34.046Z,20.41
2023-05-08T11:38:34.062Z,19.94
2023-05-08T11:39:34.994Z,19.53
2023-05-08T11:40:33.970Z,19.21
2023-05-08T11:41:34.006Z,18.84
2023-05-08T11:42:33.968Z,18.45
2023-05-08T11:43:34.013Z,18.08
2023-05-08T11:44:34.878Z,17.76
2023-05-08T11:45:33.963Z,17.39
2023-05-08T11:46:34.077Z,17.08
2023-05-08T11:47:33.921Z,16.76
2023-05-08T11:48:33.911Z,16.40
2023-05-08T11:49:34.813Z,16.10
2023-05-08T11:50:33.989Z,15.80
2023-05-08T11:51:33.925Z,15.54
2023-05-08T11:52:33.869Z,15.27
2023-05-08T11:53:33.853Z,14.99
2023-05-08T11:54:34.911Z,14.82
2023-05-08T11:55:33.892Z,14.60
2023-05-08T11:56:33.811Z,14.48
2023-05-08T11:57:33.795Z,14.32
2023-05-08T11:58:33.845Z,14.21
2023-05-08T11:59:34.770Z,14.10
2023-05-08T12:00:33.847Z,13.97
2023-05-08T12:01:33.810Z,13.85
2023-05-08T12:02:34.007Z,13.70
2023-05-08T12:03:33.946Z,13.59
2023-05-08T12:04:34.794Z,13.49
2023-05-08T12:05:33.802Z,13.37
2023-05-08T12:06:33.730Z,13.24
2023-05-08T12:07:33.719Z,13.14
2023-05-08T12:08:33.735Z,12.99
2023-05-08T12:09:33.790Z,12.89
2023-05-08T12:10:34.657Z,12.77
2023-05-08T12:11:33.700Z,12.68
2023-05-08T12:12:33.746Z,12.61
2023-05-08T12:13:33.763Z,12.51
2023-05-08T12:14:33.678Z,12.46
2023-05-08T12:15:33.673Z,12.40
2023-05-08T12:16:34.635Z,12.38
2023-05-08T12:17:33.665Z,12.36
2023-05-08T12:18:33.614Z,12.35
2023-05-08T12:19:33.622Z,12.35
2023-05-08T12:20:34.009Z,12.38
2023-05-08T12:21:34.589Z,12.32
2023-05-08T12:22:33.633Z,12.32
2023-05-08T12:23:33.597Z,12.32
2023-05-08T12:24:33.586Z,12.28
2023-05-08T12:25:33.539Z,12.27
2023-05-08T12:26:33.626Z,12.20
2023-05-08T12:27:34.533Z,12.20
2023-05-08T12:28:33.526Z,12.13
2023-05-08T12:29:33.515Z,12.10
2023-05-08T12:30:33.520Z,12.05
2023-05-08T12:31:33.579Z,12.00
2023-05-08T12:32:33.550Z,11.98